createdAt,value
2023-05-24T00:00:22.267Z,4.13
2023-05-24T00:02:49.258Z,4.13
2023-05-24T00:05:16.932Z,4.13
2023-05-24T00:07:43.634Z,5.17
2023-05-24T00:10:10.771Z,4.27
2023-05-24T00:12:37.458Z,5.10
2023-05-24T00:15:04.411Z,4.70
2023-05-24T00:17:30.994Z,4.27
2023-05-24T00:19:57.790Z,5.03
2023-05-24T00:22:25.181Z,4.97
2023-05-24T00:24:52.135Z,4.47
2023-05-24T00:27:18.733Z,5.20
2023-05-24T00:29:45.414Z,4.77
2023-05-24T00:32:11.986Z,5.00
2023-05-24T00:34:38.663Z,5.57
2023-05-24T00:37:05.270Z,3.87
2023-05-24T00:39:31.906Z,5.37
2023-05-24T00:41:58.491Z,5.00
2023-05-24T00:44:25.037Z,4.97
2023-05-24T00:46:51.617Z,5.40
2023-05-24T00:49:19.363Z,4.93
2023-05-24T00:51:46.304Z,5.13
2023-05-24T00:54:15.121Z,5.47
2023-05-24T00:56:42.821Z,5.13
2023-05-24T00:59:09.652Z,5.30
2023-05-24T01:01:37.419Z,5.17
2023-05-24T01:04:04.226Z,5.00
2023-05-24T01:06:30.901Z,5.40
2023-05-24T01:09:13.216Z,5.00
2023-05-24T01:12:00.208Z,5.70
2023-05-24T01:14:35.622Z,5.37
2023-05-24T01:17:03.071Z,5.30
2023-05-24T01:19:36.791Z,5.00
2023-05-24T01:22:12.130Z,5.63
2023-05-24T01:24:49.895Z,5.23
2023-05-24T01:27:17.761Z,5.10
2023-05-24T01:29:44.583Z,5.20
2023-05-24T01:32:12.232Z,5.20
2023-05-24T01:34:38.819Z,5.10
2023-05-24T01:37:05.505Z,5.53
2023-05-24T01:39:32.066Z,4.23
2023-05-24T01:41:58.664Z,5.33
2023-05-24T01:44:29.522Z,5.23
2023-05-24T01:47:04.697Z,4.97
2023-05-24T01:49:34.425Z,5.60
2023-05-24T01:52:03.705Z,5.17
2023-05-24T01:54:33.275Z,4.73
2023-05-24T01:57:02.393Z,5.47
2023-05-24T01:59:30.193Z,4.70
2023-05-24T02:01:57.359Z,5.47
2023-05-24T02:04:24.448Z,4.90
2023-05-24T02:06:51.088Z,5.30
2023-05-24T02:09:17.778Z,6.43
2023-05-24T02:11:44.454Z,5.17
2023-05-24T02:14:11.363Z,5.20
2023-05-24T02:16:42.783Z,5.60
2023-05-24T02:19:09.604Z,5.47
2023-05-24T02:21:36.574Z,5.57
2023-05-24T02:24:03.171Z,5.63
2023-05-24T02:26:31.291Z,6.83
2023-05-24T02:28:58.073Z,6.20
2023-05-24T02:31:28.725Z,5.93
2023-05-24T02:33:59.030Z,6.77
2023-05-24T02:36:25.570Z,6.67
2023-05-24T02:38:52.101Z,6.33
2023-05-24T02:41:18.879Z,6.73
2023-05-24T02:43:46.115Z,6.40
2023-05-24T02:46:13.051Z,6.47
2023-05-24T02:48:40.087Z,6.53
2023-05-24T02:51:06.752Z,6.57
2023-05-24T02:53:33.381Z,7.00
2023-05-24T02:56:00.195Z,6.10
2023-05-24T02:58:30.744Z,6.87
2023-05-24T03:00:57.414Z,6.53
2023-05-24T03:03:24.078Z,7.33
2023-05-24T03:05:50.700Z,6.40
2023-05-24T03:08:17.255Z,6.37
2023-05-24T03:10:44.061Z,6.10
2023-05-24T03:13:10.906Z,6.27
2023-05-24T03:15:37.472Z,5.30
2023-05-24T03:18:04.213Z,6.53
2023-05-24T03:20:31.350Z,6.33
2023-05-24T03:22:57.999Z,6.50
2023-05-24T03:25:24.612Z,6.53
2023-05-24T03:27:51.206Z,5.90
2023-05-24T03:30:17.791Z,6.17
2023-05-24T03:32:44.496Z,7.27
2023-05-24T03:35:12.249Z,6.97
2023-05-24T03:37:39.065Z,6.37
2023-05-24T03:40:06.632Z,6.10
2023-05-24T03:42:33.204Z,7.17
2023-05-24T03:44:59.986Z,7.13
2023-05-24T03:47:26.632Z,6.97
2023-05-24T03:49:53.294Z,6.60
2023-05-24T03:52:19.870Z,6.70
2023-05-24T03:54:46.521Z,6.77
2023-05-24T03:57:13.061Z,5.97
2023-05-24T03:59:41.180Z,6.50
2023-05-24T04:02:08.206Z,7.13
2023-05-24T04:04:34.962Z,7.57
2023-05-24T04:07:01.637Z,6.70
2023-05-24T04:09:28.196Z,6.37
2023-05-24T04:11:54.781Z,6.83
2023-05-24T04:14:41.308Z,6.17
2023-05-24T04:17:18.710Z,6.17
2023-05-24T04:19:57.765Z,6.87
2023-05-24T04:22:44.351Z,6.40
2023-05-24T04:25:20.163Z,6.60
2023-05-24T04:28:06.847Z,5.53
2023-05-24T04:30:33.684Z,6.33
2023-05-24T04:33:00.424Z,6.20
2023-05-24T04:35:27.115Z,5.47
2023-05-24T04:37:53.710Z,5.80
2023-05-24T04:40:23.293Z,6.40
2023-05-24T04:42:50.174Z,6.17
2023-05-24T04:45:16.886Z,7.30
2023-05-24T04:47:43.520Z,7.83
2023-05-24T04:50:11.034Z,6.17
2023-05-24T04:52:37.843Z,6.23
2023-05-24T04:55:04.565Z,7.03
2023-05-24T04:57:31.261Z,7.03
2023-05-24T04:59:57.805Z,7.23
2023-05-24T05:02:26.589Z,7.03
2023-05-24T05:04:53.629Z,6.53
2023-05-24T05:07:20.573Z,6.50
2023-05-24T05:09:47.737Z,7.43
2023-05-24T05:12:14.414Z,7.07
2023-05-24T05:14:40.961Z,6.43
2023-05-24T05:17:07.579Z,6.83
2023-05-24T05:19:34.200Z,6.37
2023-05-24T05:22:01.058Z,7.23
2023-05-24T05:24:29.181Z,6.73
2023-05-24T05:26:56.910Z,6.50
2023-05-24T05:29:24.551Z,6.27
2023-05-24T05:31:51.633Z,5.87
2023-05-24T05:34:18.422Z,5.83
2023-05-24T05:36:44.977Z,6.17
2023-05-24T05:39:11.738Z,6.00
2023-05-24T05:41:48.793Z,6.67
2023-05-24T05:44:15.388Z,7.30
2023-05-24T05:46:44.073Z,6.87
2023-05-24T05:49:11.100Z,6.90
2023-05-24T05:51:38.928Z,6.17
2023-05-24T05:54:06.071Z,6.37
2023-05-24T05:56:32.719Z,6.10
2023-05-24T05:58:59.327Z,5.57
2023-05-24T06:01:26.214Z,5.73
2023-05-24T06:03:52.869Z,5.87
2023-05-24T06:06:19.537Z,6.60
2023-05-24T06:08:46.285Z,6.13
2023-05-24T06:11:12.940Z,6.67
2023-05-24T06:13:39.561Z,5.80
2023-05-24T06:16:08.775Z,5.97
2023-05-24T06:18:36.649Z,5.40
2023-05-24T06:21:03.300Z,5.67
2023-05-24T06:23:30.094Z,6.07
2023-05-24T06:25:56.737Z,5.87
2023-05-24T06:28:23.446Z,5.53
2023-05-24T06:30:50.128Z,5.37
2023-05-24T06:33:16.799Z,6.40
2023-05-24T06:35:43.350Z,7.33
2023-05-24T06:38:09.964Z,5.23
2023-05-24T06:40:36.640Z,6.97
2023-05-24T06:43:03.200Z,6.37
2023-05-24T06:45:29.866Z,5.63
2023-05-24T06:47:57.008Z,5.80
2023-05-24T06:50:23.942Z,6.17
2023-05-24T06:52:50.496Z,5.47
2023-05-24T06:55:17.271Z,6.13
2023-05-24T06:57:43.933Z,5.03
2023-05-24T07:00:12.653Z,6.57
2023-05-24T07:02:39.862Z,5.93
2023-05-24T07:05:12.195Z,5.80
2023-05-24T07:07:39.847Z,5.77
2023-05-24T07:10:08.348Z,6.47
2023-05-24T07:12:34.970Z,6.33
2023-05-24T07:15:01.509Z,5.67
2023-05-24T07:17:28.153Z,6.83
2023-05-24T07:19:54.762Z,6.37
2023-05-24T07:22:22.682Z,6.73
2023-05-24T07:24:49.300Z,6.67
2023-05-24T07:27:15.867Z,6.23
2023-05-24T07:29:42.525Z,6.83
2023-05-24T07:32:09.997Z,5.47
2023-05-24T07:34:36.608Z,6.33
2023-05-24T07:37:03.177Z,7.10
2023-05-24T07:39:29.797Z,6.33
2023-05-24T07:41:56.657Z,6.53
2023-05-24T07:44:24.328Z,6.70
2023-05-24T07:46:51.263Z,6.20
2023-05-24T07:49:17.980Z,6.07
2023-05-24T07:51:44.664Z,6.73
2023-05-24T07:54:11.406Z,6.23
2023-05-24T07:56:38.029Z,6.00
2023-05-24T07:59:04.944Z,5.57
2023-05-24T08:01:32.195Z,6.13
2023-05-24T08:03:58.955Z,5.67
2023-05-24T08:06:25.727Z,5.27
2023-05-24T08:08:52.388Z,7.60
2023-05-24T08:11:19.041Z,6.30
2023-05-24T08:13:45.613Z,7.17
2023-05-24T08:16:12.211Z,6.07
2023-05-24T08:18:39.881Z,6.07
2023-05-24T08:21:06.609Z,6.50
2023-05-24T08:23:34.094Z,5.73
2023-05-24T08:26:00.758Z,6.33
2023-05-24T08:28:28.277Z,6.30
2023-05-24T08:30:54.943Z,6.50
2023-05-24T08:33:23.124Z,5.13
2023-05-24T08:35:50.711Z,6.07
2023-05-24T08:38:17.649Z,6.27
2023-05-24T08:40:44.647Z,5.80
2023-05-24T08:43:14.325Z,6.10
2023-05-24T08:45:41.580Z,6.60
2023-05-24T08:48:09.295Z,7.13
2023-05-24T08:50:35.944Z,6.67
2023-05-24T08:53:05.483Z,6.53
2023-05-24T08:55:33.331Z,6.20
2023-05-24T08:58:00.635Z,5.27
2023-05-24T09:00:27.598Z,6.63
2023-05-24T09:02:54.391Z,6.37
2023-05-24T09:05:24.094Z,6.37
2023-05-24T09:07:53.535Z,6.53
2023-05-24T09:10:21.478Z,7.93
2023-05-24T09:12:50.489Z,6.30
2023-05-24T09:15:17.076Z,6.90
2023-05-24T09:17:43.837Z,6.00
2023-05-24T09:20:11.505Z,6.53
2023-05-24T09:22:41.859Z,6.20
2023-05-24T09:25:10.099Z,7.33
2023-05-24T09:27:37.610Z,6.07
2023-05-24T09:30:08.653Z,6.70
2023-05-24T09:32:35.287Z,6.93
2023-05-24T09:35:02.231Z,6.70
2023-05-24T09:37:32.750Z,6.53
2023-05-24T09:40:00.601Z,6.27
2023-05-24T09:42:31.211Z,7.53
2023-05-24T09:45:06.919Z,7.20
2023-05-24T09:47:34.958Z,6.80
2023-05-24T09:50:02.335Z,6.57
2023-05-24T09:52:29.010Z,6.77
2023-05-24T09:54:55.650Z,6.40
2023-05-24T09:57:25.998Z,7.07
2023-05-24T09:59:52.871Z,6.83
2023-05-24T10:02:23.080Z,7.03
2023-05-24T10:04:57.668Z,6.43
2023-05-24T10:07:24.459Z,6.93
2023-05-24T10:09:51.771Z,6.43
2023-05-24T10:12:18.413Z,6.40
2023-05-24T10:14:45.205Z,6.80
2023-05-24T10:17:12.012Z,7.40
2023-05-24T10:19:38.593Z,7.37
2023-05-24T10:22:09.286Z,6.63
2023-05-24T10:24:38.733Z,6.77
2023-05-24T10:27:07.595Z,7.37
2023-05-24T10:29:46.508Z,7.23
2023-05-24T10:32:17.556Z,6.83
2023-05-24T10:34:46.743Z,7.07
2023-05-24T10:37:13.964Z,6.37
2023-05-24T10:39:41.856Z,6.23
2023-05-24T10:42:09.908Z,6.57
2023-05-24T10:44:37.343Z,7.60
2023-05-24T10:47:11.139Z,6.97
2023-05-24T10:49:39.812Z,6.60
2023-05-24T10:52:10.281Z,6.80
2023-05-24T10:54:39.919Z,7.07
2023-05-24T10:57:09.774Z,6.83
2023-05-24T10:59:37.995Z,6.97
2023-05-24T11:02:15.218Z,6.93
2023-05-24T11:04:49.507Z,6.77
2023-05-24T11:07:17.127Z,7.20
2023-05-24T11:09:46.928Z,7.13
2023-05-24T11:12:14.600Z,6.67
2023-05-24T11:14:41.218Z,7.27
2023-05-24T11:17:08.327Z,6.10
2023-05-24T11:19:36.413Z,6.43
2023-05-24T11:22:04.839Z,6.00
2023-05-24T11:24:32.441Z,6.17
2023-05-24T11:26:59.763Z,5.53
2023-05-24T11:29:26.558Z,5.97
2023-05-24T11:31:54.368Z,6.23
2023-05-24T11:34:21.619Z,5.63
2023-05-24T11:36:48.926Z,5.30
2023-05-24T11:39:16.255Z,5.80
2023-05-24T11:41:43.118Z,5.43
2023-05-24T11:44:10.574Z,6.77
2023-05-24T11:46:39.221Z,6.03
2023-05-24T11:49:06.825Z,5.40
2023-05-24T11:51:34.259Z,5.40
2023-05-24T11:54:01.067Z,5.80
2023-05-24T11:56:30.969Z,5.90
2023-05-24T11:59:05.698Z,5.50
2023-05-24T12:01:32.232Z,4.93
2023-05-24T12:03:58.934Z,5.40
2023-05-24T12:06:33.995Z,5.63
2023-05-24T12:09:00.537Z,5.80
2023-05-24T12:11:28.505Z,5.33
2023-05-24T12:13:55.039Z,5.80
2023-05-24T12:16:22.423Z,6.00
2023-05-24T12:19:02.290Z,6.37
2023-05-24T12:21:33.171Z,6.00
2023-05-24T12:24:12.705Z,6.10
2023-05-24T12:26:47.305Z,5.90
2023-05-24T12:29:14.507Z,5.87
2023-05-24T12:31:42.496Z,6.10
2023-05-24T12:34:27.694Z,6.40
2023-05-24T12:36:55.610Z,6.93
2023-05-24T12:39:32.285Z,6.20
2023-05-24T12:41:59.523Z,6.37
2023-05-24T12:44:27.095Z,6.20
2023-05-24T12:46:54.280Z,4.90
2023-05-24T12:49:20.967Z,6.13
2023-05-24T12:51:49.345Z,5.33
2023-05-24T12:54:18.313Z,5.40
2023-05-24T12:56:44.970Z,5.30
2023-05-24T12:59:12.131Z,5.70
2023-05-24T13:01:39.066Z,5.47
2023-05-24T13:04:05.789Z,5.50
2023-05-24T13:06:34.977Z,5.63
2023-05-24T13:09:02.192Z,5.33
2023-05-24T13:11:31.169Z,5.60
2023-05-24T13:13:59.832Z,5.77
2023-05-24T13:16:26.728Z,5.47
2023-05-24T13:18:53.385Z,5.47
2023-05-24T13:21:20.615Z,5.47
2023-05-24T13:23:47.353Z,5.20
2023-05-24T13:26:17.001Z,5.47
2023-05-24T13:29:07.620Z,5.00
2023-05-24T13:31:30.795Z,5.07
2023-05-24T13:33:57.833Z,5.37
2023-05-24T13:36:24.396Z,5.30
2023-05-24T13:38:59.335Z,5.20
2023-05-24T13:41:34.526Z,5.57
2023-05-24T13:44:01.130Z,5.07
2023-05-24T13:46:28.704Z,5.43
2023-05-24T13:48:55.988Z,5.60
2023-05-24T13:51:23.453Z,6.37
2023-05-24T13:53:50.944Z,5.27
2023-05-24T13:56:17.856Z,6.23
2023-05-24T13:58:44.745Z,6.20
2023-05-24T14:01:11.509Z,6.07
2023-05-24T14:03:40.349Z,5.87
2023-05-24T14:06:08.179Z,5.73
2023-05-24T14:08:35.296Z,6.00
2023-05-24T14:11:01.866Z,5.37
2023-05-24T14:15:58.168Z,5.37
2023-05-24T14:18:24.807Z,6.07
2023-05-24T14:20:51.371Z,6.03
2023-05-24T14:23:18.336Z,5.90
2023-05-24T14:25:47.007Z,6.53
2023-05-24T14:28:13.752Z,5.53
2023-05-24T14:30:40.595Z,6.03
2023-05-24T14:33:08.404Z,5.77
2023-05-24T14:35:40.128Z,6.67
2023-05-24T14:38:07.832Z,6.60
2023-05-24T14:40:34.504Z,6.23
2023-05-24T14:43:01.317Z,6.67
2023-05-24T14:45:28.036Z,6.30
2023-05-24T14:47:54.757Z,6.00
2023-05-24T14:50:21.679Z,5.77
2023-05-24T14:52:48.308Z,6.03
2023-05-24T14:55:15.097Z,6.00
2023-05-24T14:57:41.995Z,6.37
2023-05-24T15:00:09.383Z,6.57
2023-05-24T15:02:36.270Z,5.70
2023-05-24T15:05:03.524Z,6.37
2023-05-24T15:07:30.150Z,6.13
2023-05-24T15:09:56.757Z,6.40
2023-05-24T15:12:23.284Z,6.80
2023-05-24T15:14:49.891Z,6.43
2023-05-24T15:17:16.599Z,7.00
2023-05-24T15:19:43.254Z,6.23
2023-05-24T15:22:10.040Z,6.07
2023-05-24T15:24:37.791Z,6.50
2023-05-24T15:27:04.795Z,6.20
2023-05-24T15:29:31.689Z,6.43
2023-05-24T15:32:00.506Z,5.73
2023-05-24T15:34:27.081Z,5.80
2023-05-24T15:36:53.658Z,6.27
2023-05-24T15:39:20.517Z,5.50
2023-05-24T15:41:47.133Z,6.33
2023-05-24T15:44:13.729Z,6.23
2023-05-24T15:46:41.169Z,6.47
2023-05-24T15:49:07.832Z,6.30
2023-05-24T15:54:06.264Z,6.23
2023-05-24T15:56:32.927Z,6.53
2023-05-24T15:58:59.620Z,6.30
2023-05-24T16:01:26.221Z,6.13
2023-05-24T16:03:52.895Z,6.23
2023-05-24T16:06:19.581Z,5.83
2023-05-24T16:08:46.198Z,6.80
2023-05-24T16:11:13.445Z,6.83
2023-05-24T16:13:40.055Z,6.60
2023-05-24T16:16:06.665Z,6.20
2023-05-24T16:18:35.463Z,6.30
2023-05-24T16:21:04.363Z,5.67
2023-05-24T16:23:30.914Z,5.80
2023-05-24T16:25:57.569Z,5.67
2023-05-24T16:28:25.024Z,5.23
2023-05-24T16:30:56.513Z,5.80
2023-05-24T16:33:24.192Z,5.93
2023-05-24T16:35:55.534Z,5.70
2023-05-24T16:38:25.840Z,6.10
2023-05-24T16:40:52.879Z,5.53
2023-05-24T16:43:20.068Z,5.73
2023-05-24T16:45:46.708Z,6.77
2023-05-24T16:48:14.498Z,5.80
2023-05-24T16:50:41.546Z,6.20
2023-05-24T16:53:08.263Z,5.10
2023-05-24T16:55:34.937Z,4.73
2023-05-24T16:58:01.504Z,5.27
2023-05-24T17:00:28.117Z,4.57
2023-05-24T17:02:54.887Z,5.23
2023-05-24T17:05:21.672Z,5.17
2023-05-24T17:07:48.269Z,5.23
2023-05-24T17:10:14.884Z,4.97
2023-05-24T17:12:41.497Z,5.50
2023-05-24T17:15:08.428Z,4.83
2023-05-24T17:17:35.089Z,4.70
2023-05-24T17:20:01.855Z,5.30
2023-05-24T17:22:28.547Z,4.97
2023-05-24T17:24:55.142Z,4.60
2023-05-24T17:27:22.569Z,5.40
2023-05-24T17:29:49.331Z,4.57
2023-05-24T17:32:16.310Z,4.67
2023-05-24T17:34:42.960Z,4.30
2023-05-24T17:37:09.642Z,4.47
2023-05-24T17:39:36.403Z,4.53
2023-05-24T17:42:03.255Z,4.60
2023-05-24T17:44:29.964Z,4.20
2023-05-24T17:46:57.516Z,4.70
2023-05-24T17:49:24.153Z,4.47
2023-05-24T17:51:51.023Z,3.90
2023-05-24T17:54:17.721Z,4.37
2023-05-24T17:56:44.390Z,4.37
2023-05-24T17:59:11.228Z,3.97
2023-05-24T18:01:38.077Z,5.10
2023-05-24T18:04:06.292Z,4.50
2023-05-24T18:06:34.875Z,4.53
2023-05-24T18:09:01.441Z,4.60
2023-05-24T18:11:28.584Z,5.33
2023-05-24T18:13:55.202Z,5.10
2023-05-24T18:16:21.946Z,5.07
2023-05-24T18:18:48.667Z,5.40
2023-05-24T18:21:15.378Z,4.60
2023-05-24T18:23:42.562Z,4.63
2023-05-24T18:26:11.933Z,5.30
2023-05-24T18:28:38.963Z,4.83
2023-05-24T18:31:08.535Z,4.67
2023-05-24T18:33:35.486Z,5.07
2023-05-24T18:36:03.021Z,4.83
2023-05-24T18:38:29.636Z,5.47
2023-05-24T18:40:56.360Z,4.90
2023-05-24T18:43:22.898Z,5.20
2023-05-24T18:45:49.477Z,5.30
2023-05-24T18:48:16.031Z,5.40
2023-05-24T18:50:42.594Z,5.67
2023-05-24T18:53:09.572Z,5.40
2023-05-24T18:55:36.337Z,5.07
2023-05-24T18:58:03.087Z,5.13
2023-05-24T19:00:29.757Z,5.53
2023-05-24T19:02:56.599Z,5.77
2023-05-24T19:05:23.312Z,5.53
2023-05-24T19:07:50.394Z,5.70
2023-05-24T19:10:17.849Z,5.63
2023-05-24T19:12:44.560Z,5.33
2023-05-24T19:15:11.394Z,5.20
2023-05-24T19:17:38.218Z,6.30
2023-05-24T19:20:05.073Z,5.93
2023-05-24T19:22:31.813Z,5.80
2023-05-24T19:24:58.546Z,6.83
2023-05-24T19:27:25.208Z,5.90
2023-05-24T19:29:53.894Z,6.07
2023-05-24T19:32:20.754Z,5.53
2023-05-24T19:34:47.598Z,6.07
2023-05-24T19:37:14.405Z,6.10
2023-05-24T19:39:41.084Z,5.93
2023-05-24T19:42:07.877Z,5.87
2023-05-24T19:44:34.654Z,6.03
2023-05-24T19:47:01.284Z,5.90
2023-05-24T19:49:27.889Z,6.47
2023-05-24T19:51:54.560Z,6.40
2023-05-24T19:54:21.984Z,6.50
2023-05-24T19:56:50.855Z,6.53
2023-05-24T19:59:20.755Z,6.67
2023-05-24T20:01:47.351Z,6.17
2023-05-24T20:04:14.033Z,6.37
2023-05-24T20:06:40.914Z,6.17
2023-05-24T20:09:08.020Z,6.73
2023-05-24T20:11:35.210Z,7.63
2023-05-24T20:14:02.120Z,6.50
2023-05-24T20:16:29.596Z,6.57
2023-05-24T20:18:56.299Z,6.63
2023-05-24T20:21:23.439Z,6.60
2023-05-24T20:23:57.630Z,6.43
2023-05-24T20:26:24.950Z,6.73
2023-05-24T20:28:52.253Z,6.57
2023-05-24T20:31:19.096Z,6.63
2023-05-24T20:33:46.053Z,7.23
2023-05-24T20:36:15.214Z,7.13
2023-05-24T20:38:41.989Z,6.67
2023-05-24T20:41:08.644Z,7.40
2023-05-24T20:43:35.393Z,7.40
2023-05-24T20:46:02.143Z,7.70
2023-05-24T20:48:28.842Z,7.30
2023-05-24T20:50:55.576Z,7.87
2023-05-24T20:53:22.088Z,6.90
2023-05-24T20:55:48.839Z,7.27
2023-05-24T20:58:17.252Z,7.20
2023-05-24T21:00:43.840Z,8.03
2023-05-24T21:03:10.591Z,7.20
2023-05-24T21:05:38.221Z,7.93
2023-05-24T21:08:04.790Z,7.90
2023-05-24T21:10:32.352Z,7.90
2023-05-24T21:12:58.978Z,7.10
2023-05-24T21:15:25.514Z,7.67
2023-05-24T21:17:52.136Z,8.10
2023-05-24T21:20:18.788Z,7.77
2023-05-24T21:22:46.208Z,7.97
2023-05-24T21:25:12.794Z,7.80
2023-05-24T21:27:39.398Z,8.67
2023-05-24T21:30:06.329Z,8.30
2023-05-24T21:32:32.971Z,7.50
2023-05-24T21:34:59.697Z,8.50
2023-05-24T21:37:26.254Z,7.80
2023-05-24T21:39:52.859Z,7.43
2023-05-24T21:42:19.441Z,8.53
2023-05-24T21:44:46.097Z,7.73
2023-05-24T21:47:12.678Z,9.00
2023-05-24T21:49:39.517Z,8.97
2023-05-24T21:52:06.272Z,8.93
2023-05-24T21:54:32.932Z,8.63
2023-05-24T21:56:59.546Z,8.30
2023-05-24T21:59:26.179Z,8.67
2023-05-24T22:01:52.858Z,8.77
2023-05-24T22:04:19.550Z,8.10
2023-05-24T22:06:46.498Z,9.30
2023-05-24T22:09:13.804Z,9.27
2023-05-24T22:11:43.326Z,8.60
2023-05-24T22:14:10.960Z,9.37
2023-05-24T22:16:37.653Z,9.13
2023-05-24T22:19:11.591Z,9.17
2023-05-24T22:21:41.582Z,8.83
2023-05-24T22:24:08.840Z,9.40
2023-05-24T22:26:35.821Z,9.37
2023-05-24T22:29:03.935Z,8.43
2023-05-24T22:31:33.464Z,9.33
2023-05-24T22:34:03.570Z,9.40
2023-05-24T22:36:34.024Z,9.63
2023-05-24T22:39:01.178Z,9.93
2023-05-24T22:41:28.022Z,8.87
2023-05-24T22:43:55.838Z,9.60
2023-05-24T22:46:22.535Z,9.43
2023-05-24T22:48:52.185Z,9.83
2023-05-24T22:51:19.628Z,9.63
2023-05-24T22:53:46.744Z,10.13
2023-05-24T22:56:13.310Z,9.10
2023-05-24T22:58:39.972Z,9.63
2023-05-24T23:01:06.862Z,9.90
2023-05-24T23:03:33.544Z,10.03
2023-05-24T23:06:04.226Z,10.00
2023-05-24T23:08:32.221Z,9.10
2023-05-24T23:10:59.490Z,8.87
2023-05-24T23:13:28.012Z,9.20
2023-05-24T23:15:58.623Z,10.73
2023-05-24T23:18:26.460Z,8.60
2023-05-24T23:20:56.272Z,8.87
2023-05-24T23:23:23.016Z,9.67
2023-05-24T23:25:51.112Z,9.43
2023-05-24T23:28:17.788Z,9.47
2023-05-24T23:30:44.336Z,8.73
2023-05-24T23:33:11.397Z,9.33
2023-05-24T23:35:39.806Z,7.97
2023-05-24T23:38:06.530Z,9.53
2023-05-24T23:40:33.465Z,9.70
2023-05-24T23:43:00.199Z,8.30
2023-05-24T23:45:26.834Z,8.73
2023-05-24T23:47:53.484Z,8.63
2023-05-24T23:50:22.558Z,9.07
2023-05-24T23:52:49.742Z,9.47
2023-05-24T23:55:16.799Z,9.03
2023-05-24T23:57:45.979Z,9.03
